createdAt,value
2017-12-26T00:00:30.023Z,0
2017-12-26T00:01:55.888Z,0
2017-12-26T00:02:25.665Z,0
2017-12-26T00:02:54.076Z,0
2017-12-26T00:03:24.278Z,0
2017-12-26T00:04:46.840Z,0
2017-12-26T00:05:15.411Z,0
2017-12-26T00:05:44.799Z,0
2017-12-26T00:06:13.670Z,0
2017-12-26T00:06:44.728Z,0
2017-12-26T00:07:14.013Z,0
2017-12-26T00:07:56.455Z,0
2017-12-26T00:08:40.523Z,0
2017-12-26T00:09:22.998Z,0
2017-12-26T00:09:51.440Z,0
2017-12-26T00:10:34.976Z,0
2017-12-26T00:11:04.017Z,0
2017-12-26T00:12:33.332Z,0
2017-12-26T00:13:45.234Z,0
2017-12-26T00:14:29.541Z,0
2017-12-26T00:14:57.458Z,0
2017-12-26T00:15:41.229Z,0
2017-12-26T00:16:24.005Z,0
2017-12-26T00:19:05.071Z,0
2017-12-26T00:20:16.675Z,0
2017-12-26T00:20:45.115Z,0
2017-12-26T00:21:14.194Z,0
2017-12-26T00:21:42.490Z,0
2017-12-26T00:22:16.339Z,0
2017-12-26T00:22:45.149Z,0
2017-12-26T00:23:13.432Z,0
2017-12-26T00:23:42.491Z,0
2017-12-26T00:24:10.815Z,0
2017-12-26T00:24:53.765Z,0
2017-12-26T00:25:22.404Z,0
2017-12-26T00:26:19.387Z,0
2017-12-26T00:26:47.416Z,0
2017-12-26T00:27:17.656Z,0
2017-12-26T00:27:47.967Z,0
2017-12-26T00:28:30.901Z,0
2017-12-26T00:29:00.161Z,0
2017-12-26T00:29:29.767Z,0
2017-12-26T00:29:57.796Z,0
2017-12-26T00:30:33.296Z,0
2017-12-26T00:32:29.155Z,0
2017-12-26T00:33:41.065Z,0
2017-12-26T00:34:09.660Z,0
2017-12-26T00:34:38.103Z,0
2017-12-26T00:35:06.128Z,0
2017-12-26T00:36:18.137Z,0
2017-12-26T00:37:01.451Z,0
2017-12-26T00:37:29.455Z,0
2017-12-26T00:38:13.170Z,0
2017-12-26T00:39:53.996Z,0
2017-12-26T00:40:22.897Z,0
2017-12-26T00:41:06.274Z,0
2017-12-26T00:41:35.151Z,0
2017-12-26T00:42:03.670Z,0
2017-12-26T00:42:32.092Z,0
2017-12-26T00:43:00.692Z,0
2017-12-26T00:43:44.824Z,0
2017-12-26T00:44:13.164Z,0
2017-12-26T00:44:41.815Z,0
2017-12-26T00:45:10.320Z,0
2017-12-26T00:45:40.564Z,0
2017-12-26T00:46:08.584Z,0
2017-12-26T00:46:37.265Z,0
2017-12-26T00:47:06.117Z,0
2017-12-26T00:47:34.863Z,0
2017-12-26T00:49:00.721Z,0
2017-12-26T00:49:32.019Z,0
2017-12-26T00:50:58.480Z,0
2017-12-26T00:52:25.574Z,0
2017-12-26T00:53:11.079Z,0
2017-12-26T00:54:08.550Z,0
2017-12-26T00:54:37.828Z,0
2017-12-26T00:55:06.193Z,0
2017-12-26T00:56:18.789Z,0
2017-12-26T00:56:48.065Z,0
2017-12-26T00:57:16.401Z,0
2017-12-26T00:57:44.606Z,0
2017-12-26T00:58:12.565Z,0
2017-12-26T00:59:53.594Z,0
2017-12-26T01:00:22.439Z,0
2017-12-26T01:01:19.516Z,0
2017-12-26T01:01:47.972Z,0
2017-12-26T01:03:18.507Z,0
2017-12-26T01:03:46.944Z,0
2017-12-26T01:04:29.999Z,0
2017-12-26T01:04:59.268Z,0
2017-12-26T01:05:27.602Z,0
2017-12-26T01:05:55.962Z,0
2017-12-26T01:06:25.399Z,0
2017-12-26T01:06:53.369Z,0
2017-12-26T01:07:21.947Z,0
2017-12-26T01:07:49.964Z,0
2017-12-26T01:08:18.998Z,0
2017-12-26T01:09:02.750Z,0
2017-12-26T01:09:31.303Z,0
2017-12-26T01:10:13.785Z,0
2017-12-26T01:10:41.802Z,0
2017-12-26T01:11:12.201Z,0
2017-12-26T01:11:40.659Z,0
2017-12-26T01:12:10.309Z,0
2017-12-26T01:12:40.285Z,0
2017-12-26T01:13:08.705Z,0
2017-12-26T01:13:37.539Z,0
2017-12-26T01:14:34.622Z,0
2017-12-26T01:16:00.665Z,0
2017-12-26T01:16:28.924Z,0
2017-12-26T01:17:26.403Z,0
2017-12-26T01:17:54.944Z,0
2017-12-26T01:18:23.105Z,0
2017-12-26T01:18:52.370Z,0
2017-12-26T01:20:05.506Z,0
2017-12-26T01:20:34.422Z,0
2017-12-26T01:21:02.584Z,0
2017-12-26T01:21:31.266Z,0
2017-12-26T01:22:14.921Z,0
2017-12-26T01:22:57.478Z,0
2017-12-26T01:24:09.237Z,0
2017-12-26T01:24:37.764Z,0
2017-12-26T01:25:21.876Z,0
2017-12-26T01:25:50.148Z,0
2017-12-26T01:26:19.982Z,0
2017-12-26T01:28:00.859Z,0
2017-12-26T01:28:31.561Z,0
2017-12-26T01:28:59.480Z,0
2017-12-26T01:29:27.902Z,0
2017-12-26T01:30:02.476Z,0
2017-12-26T01:30:31.724Z,0
2017-12-26T01:31:00.972Z,0
2017-12-26T01:31:41.994Z,0
2017-12-26T01:32:39.471Z,0
2017-12-26T01:33:07.494Z,0
2017-12-26T01:34:06.331Z,0
2017-12-26T01:34:34.371Z,0
2017-12-26T01:35:02.908Z,0
2017-12-26T01:35:31.800Z,0
2017-12-26T01:36:07.147Z,0
2017-12-26T01:36:41.148Z,0
2017-12-26T01:37:10.370Z,0
2017-12-26T01:37:38.690Z,0
2017-12-26T01:39:33.624Z,0
2017-12-26T01:40:59.719Z,0
2017-12-26T01:41:27.724Z,0
2017-12-26T01:41:57.290Z,0
2017-12-26T01:42:26.095Z,0
2017-12-26T01:42:54.125Z,0
2017-12-26T01:43:22.055Z,0
2017-12-26T01:43:55.271Z,0
2017-12-26T01:44:23.693Z,0
2017-12-26T01:45:21.993Z,0
2017-12-26T01:45:50.820Z,0
2017-12-26T01:46:19.890Z,0
2017-12-26T01:46:48.210Z,0
2017-12-26T01:47:17.062Z,0
2017-12-26T01:48:01.345Z,0
2017-12-26T01:48:45.143Z,0
2017-12-26T01:49:14.709Z,0
2017-12-26T01:49:43.047Z,0
2017-12-26T01:50:11.755Z,0
2017-12-26T01:50:39.992Z,0
2017-12-26T01:51:23.373Z,0
2017-12-26T01:52:06.432Z,0
2017-12-26T01:52:50.090Z,0
2017-12-26T01:54:02.232Z,0
2017-12-26T01:54:30.783Z,0
2017-12-26T01:55:13.316Z,0
2017-12-26T01:55:42.563Z,0
2017-12-26T01:56:41.295Z,0
2017-12-26T01:57:58.333Z,0
2017-12-26T01:58:26.361Z,0
2017-12-26T01:59:39.266Z,0
2017-12-26T02:00:07.218Z,0
2017-12-26T02:00:36.003Z,0
2017-12-26T02:01:34.665Z,0
2017-12-26T02:02:03.544Z,0
2017-12-26T02:02:31.762Z,0
2017-12-26T02:02:59.780Z,0
2017-12-26T02:03:42.596Z,0
2017-12-26T02:04:10.961Z,0
2017-12-26T02:05:06.667Z,0
2017-12-26T02:05:35.321Z,0
2017-12-26T02:06:33.691Z,0
2017-12-26T02:07:01.716Z,0
2017-12-26T02:07:29.981Z,0
2017-12-26T02:07:58.427Z,0
2017-12-26T02:09:56.839Z,0
2017-12-26T02:10:53.901Z,0
2017-12-26T02:11:22.139Z,0
2017-12-26T02:11:50.953Z,0
2017-12-26T02:12:18.988Z,0
2017-12-26T02:12:47.257Z,0
2017-12-26T02:13:17.952Z,0
2017-12-26T02:13:46.624Z,0
2017-12-26T02:14:14.962Z,0
2017-12-26T02:14:43.390Z,0
2017-12-26T02:16:38.180Z,0
2017-12-26T02:17:07.010Z,0
2017-12-26T02:17:36.585Z,0
2017-12-26T02:18:05.677Z,0
2017-12-26T02:18:34.573Z,0
2017-12-26T02:19:02.904Z,0
2017-12-26T02:19:32.558Z,0
2017-12-26T02:20:00.497Z,0
2017-12-26T02:21:26.886Z,0
2017-12-26T02:21:54.907Z,0
2017-12-26T02:22:23.201Z,0
2017-12-26T02:22:51.771Z,0
2017-12-26T02:23:20.204Z,0
2017-12-26T02:23:48.227Z,0
2017-12-26T02:24:32.018Z,0
2017-12-26T02:25:00.364Z,0
2017-12-26T02:25:28.347Z,0
2017-12-26T02:25:56.382Z,0
2017-12-26T02:26:25.331Z,0
2017-12-26T02:26:54.858Z,0
2017-12-26T02:27:23.289Z,0
2017-12-26T02:27:52.641Z,0
2017-12-26T02:28:20.568Z,0
2017-12-26T02:28:49.012Z,0
2017-12-26T02:29:17.439Z,0
2017-12-26T02:29:46.355Z,0
2017-12-26T02:30:14.436Z,0
2017-12-26T02:31:25.548Z,0
2017-12-26T02:31:53.566Z,0
2017-12-26T02:32:21.584Z,0
2017-12-26T02:32:49.807Z,0
2017-12-26T02:33:18.173Z,0
2017-12-26T02:33:46.605Z,0
2017-12-26T02:34:15.877Z,0
2017-12-26T02:34:45.837Z,0
2017-12-26T02:35:13.779Z,0
2017-12-26T02:35:42.728Z,0
2017-12-26T02:36:11.482Z,0
2017-12-26T02:36:39.925Z,0
2017-12-26T02:37:08.450Z,0
2017-12-26T02:37:37.427Z,0
2017-12-26T02:38:06.665Z,0
2017-12-26T02:38:34.690Z,0
2017-12-26T02:39:03.626Z,0
2017-12-26T02:39:31.561Z,0
2017-12-26T02:39:59.966Z,0
2017-12-26T02:40:44.521Z,0
2017-12-26T02:41:27.863Z,0
2017-12-26T02:42:10.921Z,0
2017-12-26T02:42:39.261Z,0
2017-12-26T02:43:12.329Z,0
2017-12-26T02:43:40.776Z,0
2017-12-26T02:44:10.026Z,0
2017-12-26T02:44:38.545Z,0
2017-12-26T02:45:22.071Z,0
2017-12-26T02:46:27.567Z,0
2017-12-26T02:46:56.018Z,0
2017-12-26T02:47:25.679Z,0
2017-12-26T02:47:54.479Z,0
2017-12-26T02:48:23.651Z,0
2017-12-26T02:48:52.095Z,0
2017-12-26T02:49:20.115Z,0
2017-12-26T02:49:48.589Z,0
2017-12-26T02:50:17.041Z,0
2017-12-26T02:51:00.015Z,0
2017-12-26T02:51:42.916Z,0
2017-12-26T02:52:39.987Z,0
2017-12-26T02:53:10.377Z,0
2017-12-26T02:53:39.522Z,0
2017-12-26T02:54:07.531Z,0
2017-12-26T02:54:35.970Z,0
2017-12-26T02:55:03.992Z,0
2017-12-26T02:55:33.179Z,0
2017-12-26T02:56:16.921Z,0
2017-12-26T02:56:51.335Z,0
2017-12-26T02:57:19.878Z,0
2017-12-26T02:57:48.248Z,0
2017-12-26T02:58:16.271Z,0
2017-12-26T02:58:44.281Z,0
2017-12-26T02:59:12.818Z,0
2017-12-26T02:59:40.750Z,0
2017-12-26T03:00:08.870Z,0
2017-12-26T03:01:38.320Z,0
2017-12-26T03:02:06.252Z,0
2017-12-26T03:02:34.809Z,0
2017-12-26T03:03:18.462Z,0
2017-12-26T03:03:46.807Z,0
2017-12-26T03:04:14.820Z,0
2017-12-26T03:04:42.870Z,0
2017-12-26T03:05:10.910Z,0
2017-12-26T03:05:39.711Z,0
2017-12-26T03:06:08.167Z,0
2017-12-26T03:06:36.610Z,0
2017-12-26T03:07:05.049Z,0
2017-12-26T03:07:33.078Z,0
2017-12-26T03:08:01.494Z,0
2017-12-26T03:08:30.450Z,0
2017-12-26T03:08:59.308Z,0
2017-12-26T03:09:27.729Z,0
2017-12-26T03:09:56.479Z,0
2017-12-26T03:10:25.330Z,0
2017-12-26T03:11:22.394Z,0
2017-12-26T03:11:50.398Z,0
2017-12-26T03:12:18.979Z,0
2017-12-26T03:12:46.969Z,0
2017-12-26T03:13:15.504Z,0
2017-12-26T03:13:43.442Z,0
2017-12-26T03:14:26.769Z,0
2017-12-26T03:14:55.293Z,0
2017-12-26T03:15:23.737Z,0
2017-12-26T03:15:51.766Z,0
2017-12-26T03:16:20.108Z,0
2017-12-26T03:16:48.676Z,0
2017-12-26T03:17:16.915Z,0
2017-12-26T03:17:44.916Z,0
2017-12-26T03:18:12.923Z,0
2017-12-26T03:18:41.374Z,0
2017-12-26T03:19:11.117Z,0
2017-12-26T03:19:39.452Z,0
2017-12-26T03:20:07.936Z,0
2017-12-26T03:20:36.596Z,0
2017-12-26T03:22:03.922Z,0
2017-12-26T03:22:31.930Z,0
2017-12-26T03:23:18.398Z,0
2017-12-26T03:24:01.528Z,0
2017-12-26T03:24:30.406Z,0
2017-12-26T03:24:58.812Z,0
2017-12-26T03:25:26.811Z,0
2017-12-26T03:25:55.814Z,0
2017-12-26T03:26:24.237Z,0
2017-12-26T03:27:07.433Z,0
2017-12-26T03:27:35.441Z,0
2017-12-26T03:28:05.117Z,0
2017-12-26T03:28:33.119Z,0
2017-12-26T03:29:02.334Z,0
2017-12-26T03:29:46.504Z,0
2017-12-26T03:30:29.622Z,0
2017-12-26T03:30:59.605Z,0
2017-12-26T03:32:22.808Z,0
2017-12-26T03:32:50.760Z,0
2017-12-26T03:33:19.207Z,0
2017-12-26T03:34:31.666Z,0
2017-12-26T03:35:05.540Z,0
2017-12-26T03:35:34.312Z,0
2017-12-26T03:36:04.137Z,0
2017-12-26T03:36:32.408Z,0
2017-12-26T03:37:01.644Z,0
2017-12-26T03:37:29.882Z,0
2017-12-26T03:37:59.114Z,0
2017-12-26T03:39:10.569Z,0
2017-12-26T03:39:38.492Z,0
2017-12-26T03:40:07.357Z,0
2017-12-26T03:40:43.732Z,0
2017-12-26T03:41:12.911Z,0
2017-12-26T03:41:55.366Z,0
2017-12-26T03:42:25.799Z,0
2017-12-26T03:42:54.166Z,0
2017-12-26T03:43:23.555Z,0
2017-12-26T03:44:20.964Z,0
2017-12-26T03:44:50.187Z,0
2017-12-26T03:45:19.107Z,0
2017-12-26T03:45:47.840Z,0
2017-12-26T03:46:16.315Z,0
2017-12-26T03:46:44.339Z,0
2017-12-26T03:47:12.775Z,0
2017-12-26T03:47:40.798Z,0
2017-12-26T03:48:10.394Z,0
2017-12-26T03:48:39.225Z,0
2017-12-26T03:49:07.791Z,0
2017-12-26T03:49:36.466Z,0
2017-12-26T03:50:04.889Z,0
2017-12-26T03:50:32.890Z,0
2017-12-26T03:51:16.752Z,0
2017-12-26T03:51:44.687Z,0
2017-12-26T03:52:13.127Z,0
2017-12-26T03:53:10.732Z,0
2017-12-26T03:53:54.893Z,0
2017-12-26T03:54:23.244Z,0
2017-12-26T03:55:35.008Z,0
2017-12-26T03:56:03.465Z,0
2017-12-26T03:56:32.313Z,0
2017-12-26T03:57:01.087Z,0
2017-12-26T03:57:29.524Z,0
2017-12-26T03:57:58.450Z,0
2017-12-26T03:58:26.785Z,0
2017-12-26T03:58:54.791Z,0
2017-12-26T03:59:22.829Z,0
2017-12-26T03:59:52.994Z,0
2017-12-26T04:00:21.641Z,0
2017-12-26T04:00:49.587Z,0
2017-12-26T04:01:21.048Z,0
2017-12-26T04:03:02.192Z,0
2017-12-26T04:03:30.968Z,0
2017-12-26T04:04:01.504Z,0
2017-12-26T04:04:29.639Z,0
2017-12-26T04:04:57.643Z,0
2017-12-26T04:05:28.707Z,0
2017-12-26T04:06:10.840Z,0
2017-12-26T04:06:51.612Z,0
2017-12-26T04:07:50.202Z,0
2017-12-26T04:08:19.469Z,0
2017-12-26T04:08:47.894Z,0
2017-12-26T04:09:45.753Z,0
2017-12-26T04:11:12.153Z,0
2017-12-26T04:11:40.898Z,0
2017-12-26T04:12:08.918Z,0
2017-12-26T04:12:51.459Z,0
2017-12-26T04:13:19.467Z,0
2017-12-26T04:13:47.460Z,0
2017-12-26T04:14:31.735Z,0
2017-12-26T04:14:59.652Z,0
2017-12-26T04:15:28.085Z,0
2017-12-26T04:15:56.612Z,0
2017-12-26T04:17:23.406Z,0
2017-12-26T04:17:51.838Z,0
2017-12-26T04:18:20.603Z,0
2017-12-26T04:18:48.834Z,0
2017-12-26T04:22:57.446Z,0
2017-12-26T04:23:26.254Z,0
2017-12-26T04:23:54.275Z,0
2017-12-26T04:24:24.458Z,0
2017-12-26T04:26:04.835Z,0
2017-12-26T04:26:47.373Z,0
2017-12-26T04:27:15.397Z,0
2017-12-26T04:27:45.483Z,0
2017-12-26T04:28:13.412Z,0
2017-12-26T04:28:42.732Z,0
2017-12-26T04:29:11.446Z,0
2017-12-26T04:29:55.006Z,0
2017-12-26T04:30:24.050Z,0
2017-12-26T04:30:52.606Z,0
2017-12-26T04:33:01.241Z,0
2017-12-26T04:33:29.990Z,0
2017-12-26T04:33:58.493Z,0
2017-12-26T04:34:37.833Z,0
2017-12-26T04:35:06.522Z,0
2017-12-26T04:35:36.177Z,0
2017-12-26T04:36:19.467Z,0
2017-12-26T04:36:48.776Z,0
2017-12-26T04:37:17.486Z,0
2017-12-26T04:37:46.323Z,0
2017-12-26T04:38:14.792Z,0
2017-12-26T04:38:43.624Z,0
2017-12-26T04:39:12.615Z,0
2017-12-26T04:39:41.044Z,0
2017-12-26T04:40:10.008Z,0
2017-12-26T04:40:39.323Z,0
2017-12-26T04:41:07.240Z,0
2017-12-26T04:41:36.954Z,0
2017-12-26T04:42:20.608Z,0
2017-12-26T04:43:04.352Z,0
2017-12-26T04:43:33.325Z,0
2017-12-26T04:46:39.948Z,0
2017-12-26T04:47:07.977Z,0
2017-12-26T04:48:24.605Z,0
2017-12-26T04:49:24.297Z,0
2017-12-26T04:49:54.119Z,0
2017-12-26T04:50:22.955Z,0
2017-12-26T04:50:51.515Z,0
2017-12-26T04:51:34.377Z,0
2017-12-26T04:53:00.024Z,0
2017-12-26T04:53:31.498Z,0
2017-12-26T04:54:00.253Z,0
2017-12-26T04:54:59.105Z,0
2017-12-26T04:55:28.250Z,0
2017-12-26T04:56:40.145Z,0
2017-12-26T04:57:27.684Z,0
2017-12-26T04:57:57.830Z,0
2017-12-26T04:58:42.088Z,0
2017-12-26T04:59:25.329Z,0
2017-12-26T04:59:53.791Z,0
2017-12-26T05:00:30.203Z,0
2017-12-26T05:01:00.141Z,0
2017-12-26T05:01:28.149Z,0
2017-12-26T05:02:12.143Z,0
2017-12-26T05:03:38.938Z,0
2017-12-26T05:04:50.857Z,0
2017-12-26T05:05:20.370Z,0
2017-12-26T05:05:48.963Z,0
2017-12-26T05:06:48.402Z,0
2017-12-26T05:07:17.544Z,0
2017-12-26T05:08:00.747Z,0
2017-12-26T05:08:29.553Z,0
2017-12-26T05:08:57.570Z,0
2017-12-26T05:09:26.540Z,0
2017-12-26T05:09:55.268Z,0
2017-12-26T05:10:23.590Z,0
2017-12-26T05:10:51.824Z,0
2017-12-26T05:11:22.893Z,0
2017-12-26T05:12:07.053Z,0
2017-12-26T05:12:55.466Z,0
2017-12-26T05:15:34.235Z,0
2017-12-26T05:16:02.952Z,0
2017-12-26T05:16:47.911Z,0
2017-12-26T05:17:59.804Z,0
2017-12-26T05:19:14.512Z,0
2017-12-26T05:20:09.525Z,0
2017-12-26T05:24:14.814Z,0
2017-12-26T05:25:11.867Z,0
2017-12-26T05:26:22.889Z,0
2017-12-26T05:27:21.104Z,0
2017-12-26T05:28:04.436Z,0
2017-12-26T05:28:33.206Z,0
2017-12-26T05:29:01.646Z,0
2017-12-26T05:29:30.621Z,0
2017-12-26T05:30:58.405Z,0
2017-12-26T05:31:27.943Z,0
2017-12-26T05:31:57.481Z,0
2017-12-26T05:32:40.666Z,0
2017-12-26T05:33:09.525Z,0
2017-12-26T05:33:37.549Z,0
2017-12-26T05:34:21.310Z,0
2017-12-26T05:35:37.523Z,0
2017-12-26T05:36:20.063Z,0
2017-12-26T05:36:49.268Z,0
2017-12-26T05:38:59.517Z,0
2017-12-26T05:39:28.829Z,0
2017-12-26T05:40:39.992Z,0
2017-12-26T05:41:37.570Z,0
2017-12-26T05:42:05.922Z,0
2017-12-26T05:42:34.795Z,0
2017-12-26T05:43:03.892Z,0
2017-12-26T05:43:47.787Z,0
2017-12-26T05:44:45.331Z,0
2017-12-26T05:45:13.332Z,0
2017-12-26T05:45:42.973Z,0
2017-12-26T05:47:37.924Z,0
2017-12-26T05:48:06.454Z,0
2017-12-26T05:49:20.470Z,0
2017-12-26T05:50:18.289Z,0
2017-12-26T05:50:47.003Z,0
2017-12-26T05:51:45.261Z,0
2017-12-26T05:53:11.598Z,0
2017-12-26T05:54:39.010Z,0
2017-12-26T05:55:07.709Z,0
2017-12-26T05:55:36.600Z,0
2017-12-26T05:56:06.765Z,0
2017-12-26T05:56:34.686Z,0
2017-12-26T05:57:10.237Z,0
2017-12-26T05:57:38.247Z,0
2017-12-26T05:58:07.422Z,0
2017-12-26T05:58:50.896Z,0
2017-12-26T05:59:19.317Z,0
2017-12-26T06:00:03.584Z,0
2017-12-26T06:00:32.330Z,0
2017-12-26T06:01:01.594Z,0
2017-12-26T06:01:29.919Z,0
2017-12-26T06:01:58.144Z,0
2017-12-26T06:02:27.055Z,0
2017-12-26T06:04:07.592Z,0
2017-12-26T06:06:59.463Z,0
2017-12-26T06:07:31.318Z,0
2017-12-26T06:08:00.870Z,0
2017-12-26T06:09:43.579Z,0
2017-12-26T06:10:12.760Z,0
2017-12-26T06:10:42.232Z,0
2017-12-26T06:11:54.008Z,0
2017-12-26T06:12:22.900Z,0
2017-12-26T06:12:50.902Z,0
2017-12-26T06:13:19.545Z,0
2017-12-26T06:16:02.070Z,0
2017-12-26T06:16:30.994Z,0
2017-12-26T06:18:39.859Z,0
2017-12-26T06:19:10.305Z,0
2017-12-26T06:19:38.743Z,0
2017-12-26T06:20:07.290Z,0
2017-12-26T06:20:35.721Z,0
2017-12-26T06:21:05.054Z,0
2017-12-26T06:21:33.816Z,0
2017-12-26T06:22:03.832Z,0
2017-12-26T06:22:31.850Z,0
2017-12-26T06:23:00.682Z,0
2017-12-26T06:23:29.484Z,0
2017-12-26T06:23:58.357Z,0
2017-12-26T06:26:49.968Z,0
2017-12-26T06:27:19.274Z,0
2017-12-26T06:27:48.344Z,0
2017-12-26T06:28:17.430Z,0
2017-12-26T06:29:42.930Z,0
2017-12-26T06:30:25.464Z,0
2017-12-26T06:30:54.912Z,0
2017-12-26T06:32:06.412Z,0
2017-12-26T06:32:49.332Z,0
2017-12-26T06:33:31.034Z,0
2017-12-26T06:34:13.908Z,0
2017-12-26T06:34:42.507Z,0
2017-12-26T06:35:16.016Z,0
2017-12-26T06:35:44.455Z,0
2017-12-26T06:36:13.537Z,0
2017-12-26T06:40:32.567Z,0
2017-12-26T06:41:00.576Z,0
2017-12-26T06:42:42.244Z,0
2017-12-26T06:43:39.746Z,0
2017-12-26T06:44:37.027Z,0
2017-12-26T06:45:08.890Z,0
2017-12-26T06:45:53.847Z,0
2017-12-26T06:46:22.290Z,0
2017-12-26T06:47:05.985Z,0
2017-12-26T06:47:36.228Z,0
2017-12-26T06:48:06.452Z,0
2017-12-26T06:50:44.330Z,0
2017-12-26T06:51:13.157Z,0
2017-12-26T06:51:56.498Z,0
2017-12-26T06:52:41.581Z,0
2017-12-26T06:54:08.682Z,0
2017-12-26T06:54:36.602Z,0
2017-12-26T06:55:04.635Z,0
2017-12-26T06:55:33.175Z,0
2017-12-26T06:56:01.126Z,0
2017-12-26T06:56:29.176Z,0
2017-12-26T06:56:59.138Z,0
2017-12-26T06:57:27.044Z,0
2017-12-26T06:57:57.074Z,0
2017-12-26T06:58:27.618Z,0
2017-12-26T06:58:55.534Z,0
2017-12-26T06:59:23.526Z,0
2017-12-26T06:59:52.058Z,0
2017-12-26T07:00:35.174Z,0
2017-12-26T07:01:03.618Z,0
2017-12-26T07:01:32.677Z,0
2017-12-26T07:02:00.721Z,0
2017-12-26T07:02:30.125Z,0
2017-12-26T07:04:11.310Z,0
2017-12-26T07:04:40.237Z,0
2017-12-26T07:05:08.968Z,0
2017-12-26T07:05:37.534Z,0
2017-12-26T07:06:05.560Z,0
2017-12-26T07:06:49.091Z,0
2017-12-26T07:07:17.866Z,0
2017-12-26T07:07:47.003Z,0
2017-12-26T07:08:16.674Z,0
2017-12-26T07:08:45.529Z,0
2017-12-26T07:09:16.674Z,0
2017-12-26T07:10:58.589Z,0
2017-12-26T07:11:27.331Z,0
2017-12-26T07:12:02.157Z,0
2017-12-26T07:12:30.829Z,0
2017-12-26T07:13:00.667Z,0
2017-12-26T07:13:44.405Z,0
2017-12-26T07:14:27.754Z,0
2017-12-26T07:15:53.675Z,0
2017-12-26T07:16:23.891Z,0
2017-12-26T07:17:22.817Z,0
2017-12-26T07:20:31.112Z,0
2017-12-26T07:21:11.893Z,0
2017-12-26T07:21:40.748Z,0
2017-12-26T07:22:53.667Z,0
2017-12-26T07:23:22.522Z,0
2017-12-26T07:23:51.391Z,0
2017-12-26T07:24:20.822Z,0
2017-12-26T07:24:49.631Z,0
2017-12-26T07:25:47.760Z,0
2017-12-26T07:26:18.145Z,0
2017-12-26T07:27:15.543Z,0
2017-12-26T07:27:44.609Z,0
2017-12-26T07:29:14.283Z,0
2017-12-26T07:29:44.643Z,0
2017-12-26T07:30:13.902Z,0
2017-12-26T07:30:42.649Z,0
2017-12-26T07:31:39.862Z,0
2017-12-26T07:32:08.721Z,0
2017-12-26T07:34:00.658Z,0
2017-12-26T07:34:43.942Z,0
2017-12-26T07:35:28.622Z,0
2017-12-26T07:35:58.116Z,0
2017-12-26T07:36:41.078Z,0
2017-12-26T07:37:25.371Z,0
2017-12-26T07:37:59.916Z,0
2017-12-26T07:38:43.635Z,0
2017-12-26T07:39:12.810Z,0
2017-12-26T07:39:44.634Z,0
2017-12-26T07:40:42.131Z,0
2017-12-26T07:43:19.924Z,0
2017-12-26T07:44:03.896Z,0
2017-12-26T07:44:32.314Z,0
2017-12-26T07:47:26.323Z,0
2017-12-26T07:48:37.829Z,0
2017-12-26T07:49:21.351Z,0
2017-12-26T07:50:05.482Z,0
2017-12-26T07:51:33.302Z,0
2017-12-26T07:53:43.971Z,0
2017-12-26T07:54:12.410Z,0
2017-12-26T07:55:37.855Z,0
2017-12-26T07:56:35.333Z,0
2017-12-26T07:57:18.628Z,4
2017-12-26T07:58:01.951Z,4
2017-12-26T07:59:29.225Z,0
2017-12-26T07:59:58.881Z,4
2017-12-26T08:00:41.471Z,4
2017-12-26T08:01:24.947Z,8
2017-12-26T08:02:21.968Z,4
2017-12-26T08:03:07.642Z,8
2017-12-26T08:06:03.431Z,16
2017-12-26T08:06:33.466Z,20
2017-12-26T08:07:02.468Z,20
2017-12-26T08:07:45.533Z,24
2017-12-26T08:10:10.950Z,40
2017-12-26T08:10:39.202Z,44
2017-12-26T08:11:23.443Z,52
2017-12-26T08:12:21.269Z,64
2017-12-26T08:15:29.976Z,100
2017-12-26T08:16:15.700Z,112
2017-12-26T08:17:12.868Z,128
2017-12-26T08:18:39.172Z,144
2017-12-26T08:21:32.934Z,196
2017-12-26T08:22:58.796Z,224
2017-12-26T08:23:28.131Z,236
2017-12-26T08:24:25.889Z,256
2017-12-26T08:24:55.118Z,268
2017-12-26T08:25:23.129Z,280
2017-12-26T08:25:51.989Z,292
2017-12-26T08:26:20.736Z,304
2017-12-26T08:26:48.797Z,320
2017-12-26T08:27:18.073Z,332
2017-12-26T08:28:29.677Z,360
2017-12-26T08:29:00.960Z,364
2017-12-26T08:29:58.155Z,360
2017-12-26T08:30:41.216Z,360
2017-12-26T08:31:23.816Z,356
2017-12-26T08:33:08.274Z,352
2017-12-26T08:33:51.457Z,360
2017-12-26T08:34:20.701Z,360
2017-12-26T08:35:19.104Z,376
2017-12-26T08:36:01.665Z,388
2017-12-26T08:36:31.328Z,396
2017-12-26T08:37:28.615Z,432
2017-12-26T08:37:57.814Z,448
2017-12-26T08:38:43.330Z,476
2017-12-26T08:39:26.766Z,504
2017-12-26T08:40:38.977Z,540
2017-12-26T08:41:22.651Z,556
2017-12-26T08:41:52.561Z,568
2017-12-26T08:42:37.375Z,580
2017-12-26T08:43:49.910Z,620
2017-12-26T08:44:47.969Z,660
2017-12-26T08:45:30.393Z,696
2017-12-26T08:46:13.375Z,732
2017-12-26T08:46:41.401Z,760
2017-12-26T08:47:39.223Z,808
2017-12-26T08:48:09.063Z,836
2017-12-26T08:48:38.015Z,852
2017-12-26T08:49:05.940Z,868
2017-12-26T08:50:18.991Z,884
2017-12-26T08:50:47.425Z,884
2017-12-26T08:52:10.164Z,896
2017-12-26T08:52:40.093Z,916
2017-12-26T08:53:09.297Z,944
2017-12-26T08:53:54.038Z,1004
2017-12-26T08:54:37.751Z,1084
2017-12-26T08:55:06.790Z,1140
2017-12-26T08:55:49.316Z,1224
2017-12-26T08:57:30.563Z,1376
2017-12-26T08:58:13.974Z,1408
2017-12-26T08:59:39.397Z,1428
2017-12-26T09:00:07.407Z,1436
2017-12-26T09:00:35.430Z,1448
2017-12-26T09:01:04.214Z,1476
2017-12-26T09:01:33.037Z,1508
2017-12-26T09:02:46.217Z,1604
2017-12-26T09:03:44.648Z,1672
2017-12-26T09:05:11.716Z,1800
2017-12-26T09:06:10.758Z,1868
2017-12-26T09:06:54.255Z,1916
2017-12-26T09:07:22.793Z,1956
2017-12-26T09:07:50.738Z,2004
2017-12-26T09:08:19.194Z,2048
2017-12-26T09:08:47.654Z,2080
2017-12-26T09:09:15.677Z,2104
2017-12-26T09:09:45.253Z,2128
2017-12-26T09:10:13.821Z,2160
2017-12-26T09:10:44.989Z,2208
2017-12-26T09:12:25.529Z,2388
2017-12-26T09:13:09.557Z,2468
2017-12-26T09:13:38.021Z,2516
2017-12-26T09:14:50.396Z,2656
2017-12-26T09:15:22.455Z,2692
2017-12-26T09:16:07.256Z,2736
2017-12-26T09:16:37.229Z,2780
2017-12-26T09:18:20.862Z,2952
2017-12-26T09:19:03.822Z,2976
2017-12-26T09:19:32.799Z,2988
2017-12-26T09:20:00.946Z,3004
2017-12-26T09:22:16.384Z,3336
2017-12-26T09:23:13.696Z,3560
2017-12-26T09:23:41.712Z,3680
2017-12-26T09:24:54.582Z,3900
2017-12-26T09:25:38.122Z,3944
2017-12-26T09:26:08.018Z,3956
2017-12-26T09:27:05.822Z,3988
2017-12-26T09:27:35.848Z,4016
2017-12-26T09:29:16.020Z,4092
2017-12-26T09:30:00.147Z,4120
2017-12-26T09:30:42.690Z,4176
2017-12-26T09:31:25.668Z,4240
2017-12-26T09:32:09.009Z,4280
2017-12-26T09:32:38.619Z,4304
2017-12-26T09:33:07.874Z,4316
2017-12-26T09:33:50.836Z,4312
2017-12-26T09:34:48.402Z,4256
2017-12-26T09:35:17.663Z,4228
2017-12-26T09:36:46.619Z,4256
2017-12-26T09:37:15.852Z,4292
2017-12-26T09:37:45.026Z,4320
2017-12-26T09:38:28.019Z,4336
2017-12-26T09:39:25.107Z,4316
2017-12-26T09:40:08.441Z,4364
2017-12-26T09:40:36.882Z,4436
2017-12-26T09:41:04.890Z,4528
2017-12-26T09:42:17.330Z,4764
2017-12-26T09:42:45.360Z,4840
2017-12-26T09:43:28.076Z,4900
2017-12-26T09:43:56.491Z,4924
2017-12-26T09:44:39.035Z,4948
2017-12-26T09:45:08.371Z,4964
2017-12-26T09:45:37.286Z,4960
2017-12-26T09:47:33.223Z,4864
2017-12-26T09:48:03.614Z,4876
2017-12-26T09:48:46.294Z,4972
2017-12-26T09:49:15.093Z,5072
2017-12-26T09:49:43.899Z,5180
2017-12-26T09:50:12.469Z,5280
2017-12-26T09:51:09.563Z,5436
2017-12-26T09:52:21.323Z,5620
2017-12-26T09:53:04.809Z,5776
2017-12-26T09:53:34.308Z,5884
2017-12-26T09:54:03.843Z,5968
2017-12-26T09:56:01.730Z,6000
2017-12-26T09:56:29.760Z,5980
2017-12-26T09:57:56.359Z,5996
2017-12-26T09:58:25.075Z,6036
2017-12-26T09:59:09.555Z,6120
2017-12-26T10:00:07.188Z,6220
2017-12-26T10:01:19.248Z,6296
2017-12-26T10:02:02.230Z,6344
2017-12-26T10:02:45.421Z,6416
2017-12-26T10:03:13.478Z,6448
2017-12-26T10:03:56.823Z,6504
2017-12-26T10:04:39.372Z,6584
2017-12-26T10:05:07.389Z,6672
2017-12-26T10:05:35.402Z,6792
2017-12-26T10:06:03.856Z,6948
2017-12-26T10:06:31.900Z,7124
2017-12-26T10:07:00.465Z,7292
2017-12-26T10:07:29.434Z,7468
2017-12-26T10:07:57.390Z,7628
2017-12-26T10:08:54.895Z,7872
2017-12-26T10:09:22.913Z,7904
2017-12-26T10:10:34.257Z,7940
2017-12-26T10:11:02.682Z,7956
2017-12-26T10:11:46.283Z,7968
2017-12-26T10:12:30.763Z,8004
2017-12-26T10:12:58.785Z,8048
2017-12-26T10:13:41.838Z,8184
2017-12-26T10:14:25.696Z,8444
2017-12-26T10:15:10.692Z,8776
2017-12-26T10:15:39.380Z,8948
2017-12-26T10:16:08.593Z,9020
2017-12-26T10:16:51.121Z,9024
2017-12-26T10:17:20.751Z,8984
2017-12-26T10:18:03.720Z,8900
2017-12-26T10:19:01.573Z,8840
2017-12-26T10:19:29.974Z,8812
2017-12-26T10:19:57.974Z,8784
2017-12-26T10:20:41.777Z,8748
2017-12-26T10:21:24.450Z,8736
2017-12-26T10:21:52.476Z,8740
2017-12-26T10:22:49.568Z,8696
2017-12-26T10:23:35.412Z,8604
2017-12-26T10:24:04.622Z,8528
2017-12-26T10:24:32.654Z,8488
2017-12-26T10:25:00.664Z,8468
2017-12-26T10:25:43.715Z,8524